sensor_id;sensor_type;location;lat;lon;timestamp;P1;durP1;ratioP1;P2;durP2;ratioP2
23988;SDS011;12202;52.136;5.592;2023-04-16T00:00:58;24.45;;;8.23;;
23988;SDS011;12202;52.136;5.592;2023-04-16T00:03:24;26.00;;;9.20;;
23988;SDS011;12202;52.136;5.592;2023-04-16T00:05:51;14.27;;;7.35;;
23988;SDS011;12202;52.136;5.592;2023-04-16T00:08:21;22.10;;;8.45;;
23988;SDS011;12202;52.136;5.592;2023-04-16T00:10:52;24.45;;;8.95;;
23988;SDS011;12202;52.136;5.592;2023-04-16T00:13:25;29.67;;;9.18;;
23988;SDS011;12202;52.136;5.592;2023-04-16T00:15:54;28.52;;;8.90;;
23988;SDS011;12202;52.136;5.592;2023-04-16T00:18:20;36.28;;;10.32;;
23988;SDS011;12202;52.136;5.592;2023-04-16T00:20:47;29.98;;;8.77;;
23988;SDS011;12202;52.136;5.592;2023-04-16T00:23:13;26.65;;;10.15;;
23988;SDS011;12202;52.136;5.592;2023-04-16T00:25:39;37.75;;;11.30;;
23988;SDS011;12202;52.136;5.592;2023-04-16T00:28:05;31.67;;;11.05;;
23988;SDS011;12202;52.136;5.592;2023-04-16T00:30:31;35.00;;;10.55;;
23988;SDS011;12202;52.136;5.592;2023-04-16T00:32:57;40.40;;;12.55;;
23988;SDS011;12202;52.136;5.592;2023-04-16T00:35:23;37.28;;;12.07;;
23988;SDS011;12202;52.136;5.592;2023-04-16T00:37:49;51.15;;;14.50;;
23988;SDS011;12202;52.136;5.592;2023-04-16T00:40:15;32.80;;;12.05;;
23988;SDS011;12202;52.136;5.592;2023-04-16T00:42:41;42.58;;;13.68;;
23988;SDS011;12202;52.136;5.592;2023-04-16T00:45:07;46.92;;;14.60;;
23988;SDS011;12202;52.136;5.592;2023-04-16T00:47:34;51.17;;;15.45;;
23988;SDS011;12202;52.136;5.592;2023-04-16T00:50:00;54.65;;;16.55;;
23988;SDS011;12202;52.136;5.592;2023-04-16T00:52:27;61.17;;;16.35;;
23988;SDS011;12202;52.136;5.592;2023-04-16T00:54:54;59.83;;;17.42;;
23988;SDS011;12202;52.136;5.592;2023-04-16T00:57:20;45.03;;;15.45;;
23988;SDS011;12202;52.136;5.592;2023-04-16T00:59:47;63.13;;;19.05;;
23988;SDS011;12202;52.136;5.592;2023-04-16T01:02:13;57.88;;;15.55;;
23988;SDS011;12202;52.136;5.592;2023-04-16T01:04:40;62.00;;;18.20;;
23988;SDS011;12202;52.136;5.592;2023-04-16T01:07:06;60.45;;;17.55;;
23988;SDS011;12202;52.136;5.592;2023-04-16T01:09:32;45.03;;;15.18;;
23988;SDS011;12202;52.136;5.592;2023-04-16T01:11:58;57.30;;;16.65;;
23988;SDS011;12202;52.136;5.592;2023-04-16T01:14:24;51.67;;;16.33;;
23988;SDS011;12202;52.136;5.592;2023-04-16T01:16:50;51.30;;;15.63;;
23988;SDS011;12202;52.136;5.592;2023-04-16T01:19:16;66.88;;;17.95;;
23988;SDS011;12202;52.136;5.592;2023-04-16T01:21:42;64.68;;;18.63;;
23988;SDS011;12202;52.136;5.592;2023-04-16T01:24:08;63.95;;;17.85;;
23988;SDS011;12202;52.136;5.592;2023-04-16T01:26:34;51.13;;;15.88;;
23988;SDS011;12202;52.136;5.592;2023-04-16T01:29:01;53.88;;;18.10;;
23988;SDS011;12202;52.136;5.592;2023-04-16T01:31:27;79.85;;;19.63;;
23988;SDS011;12202;52.136;5.592;2023-04-16T01:33:53;48.65;;;18.52;;
23988;SDS011;12202;52.136;5.592;2023-04-16T01:36:19;71.75;;;18.77;;
23988;SDS011;12202;52.136;5.592;2023-04-16T01:38:45;55.85;;;18.23;;
23988;SDS011;12202;52.136;5.592;2023-04-16T01:41:11;53.60;;;17.52;;
23988;SDS011;12202;52.136;5.592;2023-04-16T01:43:37;62.67;;;19.27;;
23988;SDS011;12202;52.136;5.592;2023-04-16T01:48:35;61.80;;;18.90;;
23988;SDS011;12202;52.136;5.592;2023-04-16T01:51:01;60.88;;;19.23;;
23988;SDS011;12202;52.136;5.592;2023-04-16T01:53:28;64.72;;;19.88;;
23988;SDS011;12202;52.136;5.592;2023-04-16T01:55:54;52.63;;;19.08;;
23988;SDS011;12202;52.136;5.592;2023-04-16T01:58:20;51.03;;;17.20;;
23988;SDS011;12202;52.136;5.592;2023-04-16T02:00:46;76.40;;;20.35;;
23988;SDS011;12202;52.136;5.592;2023-04-16T02:03:12;52.20;;;19.05;;
23988;SDS011;12202;52.136;5.592;2023-04-16T02:05:41;63.40;;;18.25;;
23988;SDS011;12202;52.136;5.592;2023-04-16T02:08:07;65.57;;;19.58;;
23988;SDS011;12202;52.136;5.592;2023-04-16T02:10:33;69.05;;;21.45;;
23988;SDS011;12202;52.136;5.592;2023-04-16T02:12:59;68.10;;;20.00;;
23988;SDS011;12202;52.136;5.592;2023-04-16T02:15:25;63.47;;;20.02;;
23988;SDS011;12202;52.136;5.592;2023-04-16T02:17:51;61.92;;;20.73;;
23988;SDS011;12202;52.136;5.592;2023-04-16T02:20:20;59.97;;;20.20;;
23988;SDS011;12202;52.136;5.592;2023-04-16T02:22:46;60.55;;;20.55;;
23988;SDS011;12202;52.136;5.592;2023-04-16T02:25:12;63.33;;;21.67;;
23988;SDS011;12202;52.136;5.592;2023-04-16T02:27:38;63.17;;;20.80;;
23988;SDS011;12202;52.136;5.592;2023-04-16T02:30:04;71.88;;;22.65;;
23988;SDS011;12202;52.136;5.592;2023-04-16T02:32:31;59.28;;;21.27;;
23988;SDS011;12202;52.136;5.592;2023-04-16T02:34:57;68.53;;;23.23;;
23988;SDS011;12202;52.136;5.592;2023-04-16T02:37:23;59.40;;;20.92;;
23988;SDS011;12202;52.136;5.592;2023-04-16T02:39:49;68.22;;;22.02;;
23988;SDS011;12202;52.136;5.592;2023-04-16T02:42:16;56.38;;;20.95;;
23988;SDS011;12202;52.136;5.592;2023-04-16T02:44:42;69.97;;;21.48;;
23988;SDS011;12202;52.136;5.592;2023-04-16T02:47:08;64.53;;;22.92;;
23988;SDS011;12202;52.136;5.592;2023-04-16T02:49:34;68.68;;;23.27;;
23988;SDS011;12202;52.136;5.592;2023-04-16T02:52:00;73.28;;;22.90;;
23988;SDS011;12202;52.136;5.592;2023-04-16T02:54:26;65.70;;;24.48;;
23988;SDS011;12202;52.136;5.592;2023-04-16T02:56:52;61.10;;;22.52;;
23988;SDS011;12202;52.136;5.592;2023-04-16T02:59:18;68.57;;;23.85;;
23988;SDS011;12202;52.136;5.592;2023-04-16T03:01:44;64.13;;;23.33;;
23988;SDS011;12202;52.136;5.592;2023-04-16T03:04:10;65.55;;;22.45;;
23988;SDS011;12202;52.136;5.592;2023-04-16T03:06:36;67.35;;;23.38;;
23988;SDS011;12202;52.136;5.592;2023-04-16T03:09:02;84.10;;;26.38;;
23988;SDS011;12202;52.136;5.592;2023-04-16T03:11:28;74.65;;;25.05;;
23988;SDS011;12202;52.136;5.592;2023-04-16T03:13:54;79.05;;;23.73;;
23988;SDS011;12202;52.136;5.592;2023-04-16T03:16:20;61.58;;;21.88;;
23988;SDS011;12202;52.136;5.592;2023-04-16T03:18:46;79.88;;;25.70;;
23988;SDS011;12202;52.136;5.592;2023-04-16T03:21:12;72.90;;;25.48;;
23988;SDS011;12202;52.136;5.592;2023-04-16T03:23:38;71.53;;;24.27;;
23988;SDS011;12202;52.136;5.592;2023-04-16T03:26:04;65.15;;;25.38;;
23988;SDS011;12202;52.136;5.592;2023-04-16T03:28:30;69.80;;;26.17;;
23988;SDS011;12202;52.136;5.592;2023-04-16T03:30:56;75.53;;;28.17;;
23988;SDS011;12202;52.136;5.592;2023-04-16T03:33:22;80.32;;;28.40;;
23988;SDS011;12202;52.136;5.592;2023-04-16T03:35:57;96.82;;;33.90;;
23988;SDS011;12202;52.136;5.592;2023-04-16T03:38:24;88.15;;;30.73;;
23988;SDS011;12202;52.136;5.592;2023-04-16T03:40:50;82.68;;;30.83;;
23988;SDS011;12202;52.136;5.592;2023-04-16T03:43:16;92.90;;;33.15;;
23988;SDS011;12202;52.136;5.592;2023-04-16T03:45:43;88.30;;;31.40;;
23988;SDS011;12202;52.136;5.592;2023-04-16T03:48:09;91.50;;;31.70;;
23988;SDS011;12202;52.136;5.592;2023-04-16T03:50:35;83.38;;;30.08;;
23988;SDS011;12202;52.136;5.592;2023-04-16T03:53:01;82.00;;;31.20;;
23988;SDS011;12202;52.136;5.592;2023-04-16T03:55:27;81.95;;;29.92;;
23988;SDS011;12202;52.136;5.592;2023-04-16T03:57:53;86.30;;;29.98;;
23988;SDS011;12202;52.136;5.592;2023-04-16T04:00:19;91.05;;;31.25;;
23988;SDS011;12202;52.136;5.592;2023-04-16T04:02:45;79.43;;;30.17;;
23988;SDS011;12202;52.136;5.592;2023-04-16T04:05:11;83.70;;;29.83;;
23988;SDS011;12202;52.136;5.592;2023-04-16T04:07:37;78.35;;;30.23;;
23988;SDS011;12202;52.136;5.592;2023-04-16T04:10:03;78.32;;;30.88;;
23988;SDS011;12202;52.136;5.592;2023-04-16T04:12:30;75.05;;;29.27;;
23988;SDS011;12202;52.136;5.592;2023-04-16T04:14:56;81.10;;;28.33;;
23988;SDS011;12202;52.136;5.592;2023-04-16T04:17:22;81.40;;;27.65;;
23988;SDS011;12202;52.136;5.592;2023-04-16T04:19:48;74.47;;;28.60;;
23988;SDS011;12202;52.136;5.592;2023-04-16T04:22:16;71.18;;;27.65;;
23988;SDS011;12202;52.136;5.592;2023-04-16T04:24:42;79.53;;;26.52;;
23988;SDS011;12202;52.136;5.592;2023-04-16T04:27:08;73.90;;;27.88;;
23988;SDS011;12202;52.136;5.592;2023-04-16T04:29:33;78.60;;;28.00;;
23988;SDS011;12202;52.136;5.592;2023-04-16T04:31:59;64.60;;;24.70;;
23988;SDS011;12202;52.136;5.592;2023-04-16T04:34:25;76.95;;;26.00;;
23988;SDS011;12202;52.136;5.592;2023-04-16T04:36:51;67.38;;;26.08;;
23988;SDS011;12202;52.136;5.592;2023-04-16T04:39:17;68.85;;;26.05;;
23988;SDS011;12202;52.136;5.592;2023-04-16T04:41:45;68.78;;;24.80;;
23988;SDS011;12202;52.136;5.592;2023-04-16T04:44:11;64.72;;;24.15;;
23988;SDS011;12202;52.136;5.592;2023-04-16T04:46:38;72.43;;;24.92;;
23988;SDS011;12202;52.136;5.592;2023-04-16T04:49:04;63.53;;;26.33;;
23988;SDS011;12202;52.136;5.592;2023-04-16T04:51:30;60.28;;;23.52;;
23988;SDS011;12202;52.136;5.592;2023-04-16T04:53:57;61.33;;;23.90;;
23988;SDS011;12202;52.136;5.592;2023-04-16T04:56:23;62.25;;;25.90;;
23988;SDS011;12202;52.136;5.592;2023-04-16T04:58:49;58.17;;;26.10;;
23988;SDS011;12202;52.136;5.592;2023-04-16T05:01:16;71.65;;;24.38;;
23988;SDS011;12202;52.136;5.592;2023-04-16T05:03:42;58.88;;;23.92;;
23988;SDS011;12202;52.136;5.592;2023-04-16T05:06:08;65.25;;;24.27;;
23988;SDS011;12202;52.136;5.592;2023-04-16T05:08:34;62.75;;;24.67;;
23988;SDS011;12202;52.136;5.592;2023-04-16T05:11:00;72.75;;;25.27;;
23988;SDS011;12202;52.136;5.592;2023-04-16T05:13:26;62.15;;;24.75;;
23988;SDS011;12202;52.136;5.592;2023-04-16T05:15:52;59.22;;;25.60;;
23988;SDS011;12202;52.136;5.592;2023-04-16T05:18:18;77.75;;;27.27;;
23988;SDS011;12202;52.136;5.592;2023-04-16T05:20:44;66.70;;;25.33;;
23988;SDS011;12202;52.136;5.592;2023-04-16T05:23:10;74.55;;;27.08;;
23988;SDS011;12202;52.136;5.592;2023-04-16T05:25:36;63.58;;;25.02;;
23988;SDS011;12202;52.136;5.592;2023-04-16T05:28:02;66.10;;;24.33;;
23988;SDS011;12202;52.136;5.592;2023-04-16T05:30:28;72.50;;;25.38;;
23988;SDS011;12202;52.136;5.592;2023-04-16T05:32:54;61.08;;;25.02;;
23988;SDS011;12202;52.136;5.592;2023-04-16T05:35:20;63.08;;;24.38;;
23988;SDS011;12202;52.136;5.592;2023-04-16T05:37:46;70.50;;;25.23;;
23988;SDS011;12202;52.136;5.592;2023-04-16T05:40:13;70.63;;;24.65;;
23988;SDS011;12202;52.136;5.592;2023-04-16T05:42:39;71.40;;;24.95;;
23988;SDS011;12202;52.136;5.592;2023-04-16T05:45:05;70.03;;;27.92;;
23988;SDS011;12202;52.136;5.592;2023-04-16T05:47:31;69.40;;;25.45;;
23988;SDS011;12202;52.136;5.592;2023-04-16T05:49:57;61.35;;;24.48;;
23988;SDS011;12202;52.136;5.592;2023-04-16T05:52:23;60.15;;;25.05;;
23988;SDS011;12202;52.136;5.592;2023-04-16T05:54:49;76.20;;;26.40;;
23988;SDS011;12202;52.136;5.592;2023-04-16T05:57:15;67.50;;;25.52;;
23988;SDS011;12202;52.136;5.592;2023-04-16T05:59:41;69.10;;;25.75;;
23988;SDS011;12202;52.136;5.592;2023-04-16T06:02:07;62.67;;;25.15;;
23988;SDS011;12202;52.136;5.592;2023-04-16T06:04:33;67.28;;;25.88;;
23988;SDS011;12202;52.136;5.592;2023-04-16T06:07:00;55.75;;;23.35;;
23988;SDS011;12202;52.136;5.592;2023-04-16T06:09:26;68.10;;;25.08;;
23988;SDS011;12202;52.136;5.592;2023-04-16T06:11:52;66.25;;;26.45;;
23988;SDS011;12202;52.136;5.592;2023-04-16T06:14:18;66.60;;;27.98;;
23988;SDS011;12202;52.136;5.592;2023-04-16T06:16:44;73.32;;;24.10;;
23988;SDS011;12202;52.136;5.592;2023-04-16T06:19:10;69.28;;;24.90;;
23988;SDS011;12202;52.136;5.592;2023-04-16T06:21:36;75.40;;;25.63;;
23988;SDS011;12202;52.136;5.592;2023-04-16T06:24:02;68.60;;;27.52;;
23988;SDS011;12202;52.136;5.592;2023-04-16T06:26:28;77.82;;;26.20;;
23988;SDS011;12202;52.136;5.592;2023-04-16T06:28:54;64.38;;;25.92;;
23988;SDS011;12202;52.136;5.592;2023-04-16T06:31:20;70.63;;;25.67;;
23988;SDS011;12202;52.136;5.592;2023-04-16T06:33:46;70.70;;;25.95;;
23988;SDS011;12202;52.136;5.592;2023-04-16T06:36:12;77.63;;;26.00;;
23988;SDS011;12202;52.136;5.592;2023-04-16T06:38:38;79.90;;;28.48;;
23988;SDS011;12202;52.136;5.592;2023-04-16T06:41:04;71.38;;;27.77;;
23988;SDS011;12202;52.136;5.592;2023-04-16T06:43:30;66.72;;;28.42;;
23988;SDS011;12202;52.136;5.592;2023-04-16T06:45:57;74.47;;;28.92;;
23988;SDS011;12202;52.136;5.592;2023-04-16T06:48:24;85.45;;;29.35;;
23988;SDS011;12202;52.136;5.592;2023-04-16T06:50:49;89.43;;;29.25;;
23988;SDS011;12202;52.136;5.592;2023-04-16T06:53:15;76.90;;;30.60;;
23988;SDS011;12202;52.136;5.592;2023-04-16T06:55:41;88.88;;;30.67;;
23988;SDS011;12202;52.136;5.592;2023-04-16T06:58:07;89.43;;;30.77;;
23988;SDS011;12202;52.136;5.592;2023-04-16T07:00:33;90.38;;;32.70;;
23988;SDS011;12202;52.136;5.592;2023-04-16T07:03:00;76.88;;;29.50;;
23988;SDS011;12202;52.136;5.592;2023-04-16T07:05:26;79.47;;;32.05;;
23988;SDS011;12202;52.136;5.592;2023-04-16T07:07:52;82.47;;;32.20;;
23988;SDS011;12202;52.136;5.592;2023-04-16T07:10:20;88.63;;;32.20;;
23988;SDS011;12202;52.136;5.592;2023-04-16T07:12:46;81.90;;;32.70;;
23988;SDS011;12202;52.136;5.592;2023-04-16T07:15:12;88.30;;;33.08;;
23988;SDS011;12202;52.136;5.592;2023-04-16T07:17:38;85.72;;;33.63;;
23988;SDS011;12202;52.136;5.592;2023-04-16T07:20:04;79.53;;;32.30;;
23988;SDS011;12202;52.136;5.592;2023-04-16T07:22:30;86.03;;;33.28;;
23988;SDS011;12202;52.136;5.592;2023-04-16T07:24:56;80.85;;;31.17;;
23988;SDS011;12202;52.136;5.592;2023-04-16T07:27:22;73.93;;;29.73;;
23988;SDS011;12202;52.136;5.592;2023-04-16T07:29:48;77.35;;;31.15;;
23988;SDS011;12202;52.136;5.592;2023-04-16T07:32:14;82.95;;;33.10;;
23988;SDS011;12202;52.136;5.592;2023-04-16T07:34:41;87.60;;;32.22;;
23988;SDS011;12202;52.136;5.592;2023-04-16T07:37:08;77.50;;;31.48;;
23988;SDS011;12202;52.136;5.592;2023-04-16T07:39:35;81.45;;;31.38;;
23988;SDS011;12202;52.136;5.592;2023-04-16T07:42:01;86.10;;;31.25;;
23988;SDS011;12202;52.136;5.592;2023-04-16T07:44:28;80.53;;;31.45;;
23988;SDS011;12202;52.136;5.592;2023-04-16T07:46:54;79.13;;;32.53;;
23988;SDS011;12202;52.136;5.592;2023-04-16T07:49:20;79.28;;;32.35;;
23988;SDS011;12202;52.136;5.592;2023-04-16T07:51:46;80.20;;;30.65;;
23988;SDS011;12202;52.136;5.592;2023-04-16T07:54:12;74.85;;;29.52;;
23988;SDS011;12202;52.136;5.592;2023-04-16T07:56:38;76.97;;;31.52;;
23988;SDS011;12202;52.136;5.592;2023-04-16T07:59:04;76.35;;;32.60;;
23988;SDS011;12202;52.136;5.592;2023-04-16T08:01:30;75.57;;;30.92;;
23988;SDS011;12202;52.136;5.592;2023-04-16T08:03:56;67.38;;;30.30;;
23988;SDS011;12202;52.136;5.592;2023-04-16T08:06:23;86.38;;;32.30;;
23988;SDS011;12202;52.136;5.592;2023-04-16T08:08:50;86.45;;;32.80;;
23988;SDS011;12202;52.136;5.592;2023-04-16T08:11:16;76.50;;;32.40;;
23988;SDS011;12202;52.136;5.592;2023-04-16T08:13:42;77.40;;;31.75;;
23988;SDS011;12202;52.136;5.592;2023-04-16T08:16:08;68.53;;;30.55;;
23988;SDS011;12202;52.136;5.592;2023-04-16T08:18:34;76.32;;;31.00;;
23988;SDS011;12202;52.136;5.592;2023-04-16T08:21:01;81.90;;;31.38;;
23988;SDS011;12202;52.136;5.592;2023-04-16T08:23:27;75.93;;;29.70;;
23988;SDS011;12202;52.136;5.592;2023-04-16T08:25:53;77.20;;;30.95;;
23988;SDS011;12202;52.136;5.592;2023-04-16T08:28:20;77.30;;;30.10;;
23988;SDS011;12202;52.136;5.592;2023-04-16T08:30:46;72.72;;;31.55;;
23988;SDS011;12202;52.136;5.592;2023-04-16T08:33:12;79.75;;;31.27;;
23988;SDS011;12202;52.136;5.592;2023-04-16T08:35:38;69.32;;;30.85;;
23988;SDS011;12202;52.136;5.592;2023-04-16T08:38:05;78.25;;;28.50;;
23988;SDS011;12202;52.136;5.592;2023-04-16T08:40:31;77.90;;;29.35;;
23988;SDS011;12202;52.136;5.592;2023-04-16T08:42:59;83.03;;;30.63;;
23988;SDS011;12202;52.136;5.592;2023-04-16T08:45:27;81.68;;;31.10;;
23988;SDS011;12202;52.136;5.592;2023-04-16T08:47:53;84.20;;;35.58;;
23988;SDS011;12202;52.136;5.592;2023-04-16T08:50:23;81.15;;;31.95;;
23988;SDS011;12202;52.136;5.592;2023-04-16T08:52:50;75.72;;;30.00;;
23988;SDS011;12202;52.136;5.592;2023-04-16T08:55:36;72.72;;;31.13;;
23988;SDS011;12202;52.136;5.592;2023-04-16T08:58:03;72.68;;;31.27;;
23988;SDS011;12202;52.136;5.592;2023-04-16T09:00:32;74.28;;;30.48;;
23988;SDS011;12202;52.136;5.592;2023-04-16T09:02:58;77.18;;;29.27;;
23988;SDS011;12202;52.136;5.592;2023-04-16T09:05:24;72.43;;;30.10;;
23988;SDS011;12202;52.136;5.592;2023-04-16T09:07:52;74.93;;;30.80;;
23988;SDS011;12202;52.136;5.592;2023-04-16T09:10:18;86.93;;;32.45;;
23988;SDS011;12202;52.136;5.592;2023-04-16T09:12:44;76.13;;;28.73;;
23988;SDS011;12202;52.136;5.592;2023-04-16T09:15:11;76.57;;;31.42;;
23988;SDS011;12202;52.136;5.592;2023-04-16T09:17:38;68.65;;;28.83;;
23988;SDS011;12202;52.136;5.592;2023-04-16T09:20:04;76.13;;;30.40;;
23988;SDS011;12202;52.136;5.592;2023-04-16T09:22:32;68.60;;;30.13;;
23988;SDS011;12202;52.136;5.592;2023-04-16T09:24:58;75.78;;;27.75;;
23988;SDS011;12202;52.136;5.592;2023-04-16T09:27:24;60.33;;;28.13;;
23988;SDS011;12202;52.136;5.592;2023-04-16T09:29:51;68.07;;;28.98;;
23988;SDS011;12202;52.136;5.592;2023-04-16T09:32:18;66.90;;;27.45;;
23988;SDS011;12202;52.136;5.592;2023-04-16T09:34:54;61.15;;;27.63;;
23988;SDS011;12202;52.136;5.592;2023-04-16T09:37:20;62.83;;;27.27;;
23988;SDS011;12202;52.136;5.592;2023-04-16T09:39:53;60.33;;;25.63;;
23988;SDS011;12202;52.136;5.592;2023-04-16T09:42:20;64.78;;;27.27;;
23988;SDS011;12202;52.136;5.592;2023-04-16T09:44:48;61.92;;;26.90;;
23988;SDS011;12202;52.136;5.592;2023-04-16T09:47:14;65.13;;;26.45;;
23988;SDS011;12202;52.136;5.592;2023-04-16T09:49:40;60.83;;;25.30;;
23988;SDS011;12202;52.136;5.592;2023-04-16T09:52:14;60.35;;;25.15;;
23988;SDS011;12202;52.136;5.592;2023-04-16T09:54:46;58.70;;;25.65;;
23988;SDS011;12202;52.136;5.592;2023-04-16T09:57:13;61.08;;;25.65;;
23988;SDS011;12202;52.136;5.592;2023-04-16T09:59:40;68.15;;;26.85;;
23988;SDS011;12202;52.136;5.592;2023-04-16T10:02:06;59.70;;;25.65;;
23988;SDS011;12202;52.136;5.592;2023-04-16T10:04:49;52.35;;;26.98;;
23988;SDS011;12202;52.136;5.592;2023-04-16T10:07:16;52.28;;;25.20;;
23988;SDS011;12202;52.136;5.592;2023-04-16T10:09:42;55.50;;;23.48;;
23988;SDS011;12202;52.136;5.592;2023-04-16T10:12:08;45.97;;;24.08;;
23988;SDS011;12202;52.136;5.592;2023-04-16T10:14:36;58.22;;;26.83;;
23988;SDS011;12202;52.136;5.592;2023-04-16T10:17:03;58.40;;;25.45;;
23988;SDS011;12202;52.136;5.592;2023-04-16T10:19:30;54.90;;;25.60;;
23988;SDS011;12202;52.136;5.592;2023-04-16T10:21:56;57.58;;;25.77;;
23988;SDS011;12202;52.136;5.592;2023-04-16T10:24:24;55.80;;;24.48;;
23988;SDS011;12202;52.136;5.592;2023-04-16T10:26:53;63.08;;;27.02;;
23988;SDS011;12202;52.136;5.592;2023-04-16T10:29:19;61.88;;;26.10;;
23988;SDS011;12202;52.136;5.592;2023-04-16T10:31:46;60.83;;;25.88;;
23988;SDS011;12202;52.136;5.592;2023-04-16T10:34:13;63.53;;;27.77;;
23988;SDS011;12202;52.136;5.592;2023-04-16T10:36:39;65.43;;;26.65;;
23988;SDS011;12202;52.136;5.592;2023-04-16T10:39:08;53.78;;;27.02;;
23988;SDS011;12202;52.136;5.592;2023-04-16T10:41:35;57.17;;;25.27;;
23988;SDS011;12202;52.136;5.592;2023-04-16T10:44:05;59.53;;;27.63;;
23988;SDS011;12202;52.136;5.592;2023-04-16T10:46:35;59.22;;;26.10;;
23988;SDS011;12202;52.136;5.592;2023-04-16T10:49:11;61.13;;;27.33;;
23988;SDS011;12202;52.136;5.592;2023-04-16T10:51:37;58.67;;;27.17;;
23988;SDS011;12202;52.136;5.592;2023-04-16T10:56:36;51.85;;;23.42;;
23988;SDS011;12202;52.136;5.592;2023-04-16T10:59:06;55.50;;;27.60;;
23988;SDS011;12202;52.136;5.592;2023-04-16T11:01:36;48.58;;;25.38;;
23988;SDS011;12202;52.136;5.592;2023-04-16T11:09:56;49.10;;;24.70;;
23988;SDS011;12202;52.136;5.592;2023-04-16T11:12:35;62.35;;;26.52;;
23988;SDS011;12202;52.136;5.592;2023-04-16T11:15:02;57.83;;;26.73;;
23988;SDS011;12202;52.136;5.592;2023-04-16T11:17:35;53.25;;;25.02;;
23988;SDS011;12202;52.136;5.592;2023-04-16T11:20:02;52.67;;;22.67;;
23988;SDS011;12202;52.136;5.592;2023-04-16T11:22:29;50.88;;;23.88;;
23988;SDS011;12202;52.136;5.592;2023-04-16T11:24:55;50.03;;;22.52;;
23988;SDS011;12202;52.136;5.592;2023-04-16T11:27:22;63.95;;;25.17;;
23988;SDS011;12202;52.136;5.592;2023-04-16T11:29:58;43.70;;;22.20;;
23988;SDS011;12202;52.136;5.592;2023-04-16T11:32:24;56.97;;;23.98;;
23988;SDS011;12202;52.136;5.592;2023-04-16T11:34:50;58.10;;;23.95;;
23988;SDS011;12202;52.136;5.592;2023-04-16T11:37:36;49.30;;;23.35;;
23988;SDS011;12202;52.136;5.592;2023-04-16T11:40:03;42.38;;;24.50;;
23988;SDS011;12202;52.136;5.592;2023-04-16T11:42:30;56.03;;;25.52;;
23988;SDS011;12202;52.136;5.592;2023-04-16T11:44:58;61.13;;;24.63;;
23988;SDS011;12202;52.136;5.592;2023-04-16T11:47:25;50.83;;;25.45;;
23988;SDS011;12202;52.136;5.592;2023-04-16T11:49:51;53.50;;;24.23;;
23988;SDS011;12202;52.136;5.592;2023-04-16T11:52:27;53.42;;;24.00;;
23988;SDS011;12202;52.136;5.592;2023-04-16T11:54:53;46.58;;;23.23;;
23988;SDS011;12202;52.136;5.592;2023-04-16T11:57:26;47.67;;;22.02;;
23988;SDS011;12202;52.136;5.592;2023-04-16T11:59:52;53.13;;;23.70;;
23988;SDS011;12202;52.136;5.592;2023-04-16T12:02:37;45.67;;;22.55;;
23988;SDS011;12202;52.136;5.592;2023-04-16T12:05:04;45.28;;;22.33;;
23988;SDS011;12202;52.136;5.592;2023-04-16T12:07:31;46.05;;;22.08;;
23988;SDS011;12202;52.136;5.592;2023-04-16T12:10:04;50.03;;;21.10;;
23988;SDS011;12202;52.136;5.592;2023-04-16T12:12:31;52.97;;;22.00;;
23988;SDS011;12202;52.136;5.592;2023-04-16T12:14:57;45.47;;;21.90;;
23988;SDS011;12202;52.136;5.592;2023-04-16T12:17:24;51.47;;;22.60;;
23988;SDS011;12202;52.136;5.592;2023-04-16T12:19:51;48.40;;;21.45;;
23988;SDS011;12202;52.136;5.592;2023-04-16T12:22:24;49.10;;;22.02;;
23988;SDS011;12202;52.136;5.592;2023-04-16T12:24:54;46.65;;;21.63;;
23988;SDS011;12202;52.136;5.592;2023-04-16T12:27:21;52.55;;;22.77;;
23988;SDS011;12202;52.136;5.592;2023-04-16T12:30:01;42.05;;;21.00;;
23988;SDS011;12202;52.136;5.592;2023-04-16T12:32:27;50.63;;;22.95;;
23988;SDS011;12202;52.136;5.592;2023-04-16T12:34:53;54.00;;;22.73;;
23988;SDS011;12202;52.136;5.592;2023-04-16T12:37:19;55.28;;;23.02;;
23988;SDS011;12202;52.136;5.592;2023-04-16T12:39:45;52.72;;;24.35;;
23988;SDS011;12202;52.136;5.592;2023-04-16T12:42:11;49.53;;;23.05;;
23988;SDS011;12202;52.136;5.592;2023-04-16T12:44:40;47.47;;;23.58;;
23988;SDS011;12202;52.136;5.592;2023-04-16T12:47:06;52.72;;;23.88;;
23988;SDS011;12202;52.136;5.592;2023-04-16T12:49:32;56.63;;;26.27;;
23988;SDS011;12202;52.136;5.592;2023-04-16T12:51:58;52.92;;;25.05;;
23988;SDS011;12202;52.136;5.592;2023-04-16T12:54:24;55.47;;;25.33;;
23988;SDS011;12202;52.136;5.592;2023-04-16T12:56:53;56.88;;;25.02;;
23988;SDS011;12202;52.136;5.592;2023-04-16T12:59:19;57.03;;;25.77;;
23988;SDS011;12202;52.136;5.592;2023-04-16T13:01:44;60.88;;;27.75;;
23988;SDS011;12202;52.136;5.592;2023-04-16T13:04:10;64.95;;;26.77;;
23988;SDS011;12202;52.136;5.592;2023-04-16T13:06:36;56.40;;;27.25;;
23988;SDS011;12202;52.136;5.592;2023-04-16T13:09:02;69.93;;;27.48;;
23988;SDS011;12202;52.136;5.592;2023-04-16T13:11:29;61.90;;;28.35;;
23988;SDS011;12202;52.136;5.592;2023-04-16T13:13:55;58.60;;;26.77;;
23988;SDS011;12202;52.136;5.592;2023-04-16T13:16:21;62.65;;;28.45;;
23988;SDS011;12202;52.136;5.592;2023-04-16T13:18:47;66.57;;;29.75;;
23988;SDS011;12202;52.136;5.592;2023-04-16T13:21:13;58.80;;;27.35;;
23988;SDS011;12202;52.136;5.592;2023-04-16T13:23:39;62.53;;;27.15;;
23988;SDS011;12202;52.136;5.592;2023-04-16T13:26:05;54.55;;;27.98;;
23988;SDS011;12202;52.136;5.592;2023-04-16T13:28:31;71.00;;;28.13;;
23988;SDS011;12202;52.136;5.592;2023-04-16T13:30:57;72.60;;;30.27;;
23988;SDS011;12202;52.136;5.592;2023-04-16T13:33:24;53.83;;;28.02;;
23988;SDS011;12202;52.136;5.592;2023-04-16T13:35:50;52.13;;;26.17;;
23988;SDS011;12202;52.136;5.592;2023-04-16T13:38:18;55.80;;;26.08;;
23988;SDS011;12202;52.136;5.592;2023-04-16T13:40:45;49.42;;;25.88;;
23988;SDS011;12202;52.136;5.592;2023-04-16T13:43:11;54.45;;;23.77;;
23988;SDS011;12202;52.136;5.592;2023-04-16T13:45:38;57.65;;;28.02;;
23988;SDS011;12202;52.136;5.592;2023-04-16T13:48:04;62.03;;;26.27;;
23988;SDS011;12202;52.136;5.592;2023-04-16T13:50:30;59.42;;;25.48;;
23988;SDS011;12202;52.136;5.592;2023-04-16T13:52:56;47.78;;;24.15;;
23988;SDS011;12202;52.136;5.592;2023-04-16T13:55:22;58.85;;;25.15;;
23988;SDS011;12202;52.136;5.592;2023-04-16T13:57:48;55.63;;;25.08;;
23988;SDS011;12202;52.136;5.592;2023-04-16T14:00:16;50.22;;;23.35;;
23988;SDS011;12202;52.136;5.592;2023-04-16T14:02:42;48.85;;;23.35;;
23988;SDS011;12202;52.136;5.592;2023-04-16T14:05:10;47.33;;;22.75;;
23988;SDS011;12202;52.136;5.592;2023-04-16T14:07:36;52.60;;;24.48;;
23988;SDS011;12202;52.136;5.592;2023-04-16T14:10:02;50.45;;;23.30;;
23988;SDS011;12202;52.136;5.592;2023-04-16T14:12:28;51.67;;;23.55;;
23988;SDS011;12202;52.136;5.592;2023-04-16T14:14:55;45.30;;;23.05;;
23988;SDS011;12202;52.136;5.592;2023-04-16T14:17:21;43.53;;;21.48;;
23988;SDS011;12202;52.136;5.592;2023-04-16T14:19:47;44.33;;;21.30;;
23988;SDS011;12202;52.136;5.592;2023-04-16T14:22:13;45.33;;;21.63;;
23988;SDS011;12202;52.136;5.592;2023-04-16T14:24:41;56.00;;;22.23;;
23988;SDS011;12202;52.136;5.592;2023-04-16T14:27:07;41.63;;;21.23;;
23988;SDS011;12202;52.136;5.592;2023-04-16T14:29:33;57.05;;;21.27;;